Oaks, Texas
Current Conditions -  °F | °C
As of 3:52 PM on Sunday 21 Dec 2014 (Local Time) from KNFW Reporting Station
Overcast Overcast  
Wind Chill: 56°   Ceiling: 1600
Heat Index: 56°   Visibility: 10mi
Dew Point: 45°   Wind: 14mph
Humidity: 67%   Direction: 170°S
Pressure: 29.89"   Gusts: NA
Location:  32.7763°N, 97.4092°W
Report Text: KNFW 212152Z 17012KT 10SM OVC016 13/07 A2989 RMK AO2 SLP105 T01330072
Loading
Personal Weather Stations






























Interactive Weather Map New forecast layout! Learn more

10-Day Weather Forecast

Advertisements
Track Severe Weather on mobile